Natural Bridge, Kentucky
Current Conditions -  °F | °C
As of 7:55 PM on Friday 19 Dec 2014 (Local Time) from KIOB Reporting Station
Clear Clear  
Wind Chill: 27°   Ceiling: Unl
Heat Index: 27°   Visibility: 10mi
Dew Point: 23°   Wind: 3mph
Humidity: 86%   Direction: 40°NE
Pressure: 30.3"   Gusts: NA
Location:  37.7973°N, 83.6839°W
Report Text: KIOB 200055Z AUTO 04003KT 10SM CLR M03/M05 A3030 RMK AO2
Loading
Personal Weather Stations






























Interactive Weather Map New forecast layout! Learn more

10-Day Weather Forecast

Advertisements
Track Severe Weather on mobile